Time;durP1;ratioP1;P1;durP2;ratioP2;P2;SDS_P1;SDS_P2;PMS_P1;PMS_P2;Temp;Humidity;BMP_temperature;BMP_pressure;BME280_temperature;BME280_humidity;BME280_pressure;Samples;Min_cycle;Max_cycle;Signal;HPM_P1;HPM_P2
2022/03/14 00:01:55;;;;;;;29.20;14.07;;;-0.70;70.70;;;;;;5047191;28;20190;-72
2022/03/14 00:04:21;;;;;;;31.83;13.40;;;-0.70;70.80;;;;;;5043655;28;20187;-73
2022/03/14 00:06:48;;;;;;;26.30;13.00;;;-0.70;70.90;;;;;;5047547;28;20194;-72
2022/03/14 00:09:16;;;;;;;29.03;14.90;;;-0.70;70.90;;;;;;5050954;28;20676;-73
2022/03/14 00:11:43;;;;;;;22.17;11.63;;;-0.80;70.80;;;;;;5049843;28;20192;-73
2022/03/14 00:14:09;;;;;;;31.40;14.57;;;-0.80;70.90;;;;;;5052270;28;20238;-73
2022/03/14 00:16:38;;;;;;;28.10;13.03;;;-0.80;71.00;;;;;;5045868;28;20583;-72
2022/03/14 00:19:05;;;;;;;24.00;12.20;;;-0.80;70.90;;;;;;5058656;28;20270;-71
2022/03/14 00:21:33;;;;;;;27.13;12.07;;;-0.80;70.90;;;;;;5051515;28;20186;-72
2022/03/14 00:23:59;;;;;;;17.80;9.40;;;-0.80;70.90;;;;;;5050669;28;20198;-71
2022/03/14 00:26:26;;;;;;;23.10;10.47;;;-0.80;70.80;;;;;;5046007;28;20634;-71
2022/03/14 00:28:52;;;;;;;20.03;10.13;;;-0.80;71.00;;;;;;5051965;28;20229;-72
2022/03/14 00:31:19;;;;;;;23.47;11.00;;;-0.80;71.10;;;;;;5049731;28;20237;-71
2022/03/14 00:33:44;;;;;;;20.83;11.03;;;-0.80;71.20;;;;;;5055287;28;20794;-72
2022/03/14 00:36:10;;;;;;;28.83;12.53;;;-0.90;71.80;;;;;;5051613;28;20187;-72
2022/03/14 00:38:38;;;;;;;18.53;11.00;;;-0.90;71.70;;;;;;5048425;28;20235;-71
2022/03/14 00:41:05;;;;;;;24.53;12.83;;;-0.90;72.10;;;;;;5057607;28;20270;-74
2022/03/14 00:43:32;;;;;;;20.63;11.93;;;-0.90;72.20;;;;;;5049591;28;20237;-72
2022/03/14 00:45:59;;;;;;;24.93;11.30;;;-0.90;72.40;;;;;;5054663;28;20183;-73
2022/03/14 00:48:25;;;;;;;27.17;12.30;;;-0.90;72.60;;;;;;5049816;28;20192;-72
2022/03/14 00:50:51;;;;;;;23.00;12.13;;;-1.00;72.60;;;;;;5054379;28;20542;-73
2022/03/14 00:53:17;;;;;;;22.67;12.10;;;-1.00;72.60;;;;;;5052962;28;20607;-72
2022/03/14 00:55:43;;;;;;;27.03;12.30;;;-1.00;72.90;;;;;;5051382;28;20191;-72
2022/03/14 00:58:09;;;;;;;34.87;12.63;;;-1.00;72.90;;;;;;5050962;28;20196;-70
2022/03/14 01:00:35;;;;;;;35.83;13.17;;;-1.10;72.90;;;;;;5049315;28;20183;-72
2022/03/14 01:03:03;;;;;;;24.47;11.53;;;-1.10;73.10;;;;;;5055289;28;20183;-72
2022/03/14 01:05:28;;;;;;;25.77;11.87;;;-1.10;73.20;;;;;;5057374;28;20187;-72
2022/03/14 01:07:55;;;;;;;24.13;13.07;;;-1.10;73.50;;;;;;5048189;28;20217;-72
2022/03/14 01:10:21;;;;;;;30.93;12.63;;;-1.20;73.70;;;;;;5058393;28;20175;-71
2022/03/14 01:12:46;;;;;;;23.33;12.13;;;-1.20;73.50;;;;;;5048439;28;20249;-71
2022/03/14 01:15:12;;;;;;;30.27;11.73;;;-1.30;73.70;;;;;;5054604;28;20943;-72
2022/03/14 01:17:40;;;;;;;17.57;11.43;;;-1.30;73.50;;;;;;5057086;28;20186;-72
2022/03/14 01:20:08;;;;;;;19.93;11.40;;;-1.30;73.80;;;;;;5053623;28;20175;-72
2022/03/14 01:22:34;;;;;;;23.53;11.03;;;-1.40;74.00;;;;;;5047666;28;20190;-71
2022/03/14 01:25:00;;;;;;;29.37;11.83;;;-1.40;73.90;;;;;;5058509;28;20197;-71
2022/03/14 01:27:26;;;;;;;20.57;11.10;;;-1.40;73.80;;;;;;5056092;28;20175;-71
2022/03/14 01:29:52;;;;;;;18.17;9.10;;;-1.50;73.80;;;;;;5056401;28;20545;-71
2022/03/14 01:32:17;;;;;;;18.50;10.00;;;-1.50;73.70;;;;;;5050473;28;20203;-71
2022/03/14 01:34:43;;;;;;;24.77;10.53;;;-1.50;73.40;;;;;;5053220;28;20195;-70
2022/03/14 01:37:09;;;;;;;19.20;9.50;;;-1.50;73.30;;;;;;5047292;28;20264;-70
2022/03/14 01:39:35;;;;;;;22.03;9.43;;;-1.50;73.40;;;;;;5059695;28;20180;-71
2022/03/14 01:42:01;;;;;;;18.90;10.60;;;-1.60;73.70;;;;;;5047050;28;20187;-71
2022/03/14 01:44:27;;;;;;;19.97;10.57;;;-1.60;74.00;;;;;;5057828;28;20626;-71
2022/03/14 01:46:53;;;;;;;22.37;9.50;;;-1.60;74.00;;;;;;5052727;28;20183;-71
2022/03/14 01:49:19;;;;;;;15.27;10.63;;;-1.60;74.20;;;;;;5056578;28;20179;-71
2022/03/14 01:51:45;;;;;;;19.43;10.27;;;-1.60;74.60;;;;;;5051690;28;20203;-72
2022/03/14 01:54:11;;;;;;;17.87;10.07;;;-1.70;74.80;;;;;;5047359;28;20313;-71
2022/03/14 01:56:39;;;;;;;19.60;9.77;;;-1.70;75.00;;;;;;5049364;28;20921;-71
2022/03/14 01:59:09;;;;;;;21.17;10.23;;;-1.70;74.80;;;;;;5054752;28;20183;-71
2022/03/14 02:01:34;;;;;;;18.63;10.80;;;-1.80;74.80;;;;;;5049360;28;20211;-71
2022/03/14 02:04:00;;;;;;;15.47;8.50;;;-1.80;74.60;;;;;;5052100;28;20683;-71
2022/03/14 02:06:29;;;;;;;20.63;9.13;;;-1.80;74.70;;;;;;5055574;28;20222;-71
2022/03/14 02:08:55;;;;;;;18.07;9.10;;;-1.80;74.80;;;;;;5050026;28;20194;-71
2022/03/14 02:11:21;;;;;;;17.57;10.00;;;-1.80;75.30;;;;;;5050808;28;20187;-72
2022/03/14 02:13:47;;;;;;;17.13;9.63;;;-1.80;75.20;;;;;;5047488;28;20221;-70
2022/03/14 02:16:13;;;;;;;20.57;11.43;;;-1.80;75.40;;;;;;5052151;28;20183;-70
2022/03/14 02:18:38;;;;;;;20.60;9.93;;;-1.80;75.50;;;;;;5053397;28;20187;-70
2022/03/14 02:21:06;;;;;;;17.23;9.93;;;-1.80;75.80;;;;;;5052103;28;20739;-71
2022/03/14 02:23:32;;;;;;;17.60;10.00;;;-1.80;75.70;;;;;;5048656;28;20211;-71
2022/03/14 02:25:57;;;;;;;15.73;9.20;;;-1.80;75.80;;;;;;5049416;28;20564;-72
2022/03/14 02:28:26;;;;;;;20.80;9.47;;;-1.80;75.80;;;;;;5049991;28;20214;-72
2022/03/14 02:30:52;;;;;;;12.10;7.50;;;-1.80;75.90;;;;;;5054785;28;20183;-72
2022/03/14 02:33:18;;;;;;;17.57;8.70;;;-1.80;75.80;;;;;;5052477;28;20329;-71
2022/03/14 02:35:45;;;;;;;18.27;10.33;;;-1.80;75.80;;;;;;5046865;28;20622;-72
2022/03/14 02:38:15;;;;;;;15.10;8.97;;;-1.80;75.90;;;;;;5048630;28;20314;-71
2022/03/14 02:40:46;;;;;;;20.13;9.40;;;-1.80;75.90;;;;;;5054636;28;20189;-72
2022/03/14 02:43:24;;;;;;;13.23;7.17;;;-1.80;75.70;;;;;;5049420;28;20187;-71
2022/03/14 02:45:51;;;;;;;13.70;8.53;;;-1.80;75.70;;;;;;5081934;28;20995;-71
2022/03/14 02:48:18;;;;;;;26.93;8.87;;;-1.80;76.00;;;;;;5051970;28;20564;-72
2022/03/14 02:50:44;;;;;;;13.33;7.33;;;-1.80;76.10;;;;;;5054544;28;20218;-71
2022/03/14 02:53:11;;;;;;;16.37;9.70;;;-1.90;75.90;;;;;;5052362;28;20206;-70
2022/03/14 02:55:37;;;;;;;11.07;8.47;;;-1.90;75.90;;;;;;5048239;28;20344;-71
2022/03/14 02:58:03;;;;;;;13.90;7.73;;;-1.90;75.80;;;;;;5051463;28;20196;-72
2022/03/14 03:00:30;;;;;;;14.73;8.00;;;-1.90;75.90;;;;;;5050563;28;20653;-71
2022/03/14 03:02:56;;;;;;;14.57;8.23;;;-1.90;75.80;;;;;;5051081;28;20604;-71
2022/03/14 03:05:22;;;;;;;16.10;8.50;;;-1.90;75.90;;;;;;5048831;28;20258;-71
2022/03/14 03:07:48;;;;;;;13.17;7.83;;;-2.00;76.00;;;;;;5048811;28;20186;-71
2022/03/14 03:10:20;;;;;;;14.20;7.73;;;-2.00;76.00;;;;;;5043180;28;20605;-71
2022/03/14 03:12:46;;;;;;;11.03;7.20;;;-2.00;76.00;;;;;;5048766;28;20216;-71
2022/03/14 03:15:15;;;;;;;11.67;8.57;;;-2.00;76.10;;;;;;5052524;28;20683;-71
2022/03/14 03:17:42;;;;;;;18.00;7.63;;;-2.00;76.10;;;;;;5050495;28;20203;-71
2022/03/14 03:20:09;;;;;;;16.70;7.27;;;-2.00;76.20;;;;;;5051494;28;20189;-73
2022/03/14 03:22:35;;;;;;;11.93;7.07;;;-2.00;76.20;;;;;;5050204;28;20183;-71
2022/03/14 03:25:01;;;;;;;13.57;8.00;;;-2.10;76.10;;;;;;5050668;28;20187;-73
2022/03/14 03:27:27;;;;;;;12.67;7.23;;;-2.10;76.10;;;;;;5056127;28;20188;-71
2022/03/14 03:29:52;;;;;;;10.43;6.50;;;-2.10;76.00;;;;;;5052813;28;20190;-71
2022/03/14 03:32:18;;;;;;;13.23;8.03;;;-2.10;76.10;;;;;;5045640;28;20289;-71
2022/03/14 03:34:44;;;;;;;12.20;7.17;;;-2.10;76.20;;;;;;5051301;28;20609;-71
2022/03/14 03:37:09;;;;;;;12.30;7.37;;;-2.10;76.10;;;;;;5052500;28;20241;-72
2022/03/14 03:39:35;;;;;;;19.47;8.07;;;-2.10;76.30;;;;;;5046947;28;20190;-71
2022/03/14 03:42:01;;;;;;;11.53;6.53;;;-2.10;76.30;;;;;;5045127;28;20316;-71
2022/03/14 03:44:28;;;;;;;13.97;7.10;;;-2.10;76.40;;;;;;5049760;28;20303;-71
2022/03/14 03:46:54;;;;;;;12.80;6.63;;;-2.20;76.60;;;;;;5049112;28;20179;-71
2022/03/14 03:49:21;;;;;;;12.70;6.87;;;-2.20;76.70;;;;;;5052331;28;21113;-71
2022/03/14 03:51:49;;;;;;;12.30;6.40;;;-2.20;76.90;;;;;;5044643;28;20180;-73
2022/03/14 03:54:15;;;;;;;10.93;6.63;;;-2.20;77.60;;;;;;5050630;28;20223;-73
2022/03/14 03:56:41;;;;;;;17.93;7.40;;;-2.20;77.40;;;;;;5039909;28;20187;-73
2022/03/14 03:59:07;;;;;;;14.07;7.60;;;-2.30;77.40;;;;;;5048514;28;20265;-72
2022/03/14 04:01:33;;;;;;;9.90;6.50;;;-2.30;77.60;;;;;;5045920;28;20286;-73
2022/03/14 04:04:01;;;;;;;14.17;7.07;;;-2.30;77.70;;;;;;5053487;28;20262;-74
2022/03/14 04:06:29;;;;;;;12.83;6.63;;;-2.30;77.80;;;;;;5047909;28;20224;-74
2022/03/14 04:08:55;;;;;;;10.77;6.50;;;-2.30;77.80;;;;;;5046820;28;20691;-72
2022/03/14 04:11:22;;;;;;;13.20;7.53;;;-2.40;77.90;;;;;;5045080;28;20194;-72
2022/03/14 04:13:58;;;;;;;12.73;7.43;;;-2.40;78.00;;;;;;5052186;28;20222;-72
2022/03/14 04:16:26;;;;;;;9.20;5.53;;;-2.40;77.80;;;;;;5050513;28;20186;-72
2022/03/14 04:18:53;;;;;;;10.83;6.00;;;-2.40;77.80;;;;;;5054217;28;20685;-72
2022/03/14 04:21:20;;;;;;;9.40;5.77;;;-2.50;78.00;;;;;;5052218;28;20201;-72
2022/03/14 04:23:46;;;;;;;11.10;6.90;;;-2.50;78.20;;;;;;5073283;28;20189;-72
2022/03/14 04:26:12;;;;;;;10.43;5.83;;;-2.50;78.10;;;;;;5057641;28;20185;-72
2022/03/14 04:28:39;;;;;;;9.80;6.00;;;-2.50;78.00;;;;;;5055157;28;20182;-71
2022/03/14 04:31:06;;;;;;;9.73;6.83;;;-2.50;78.00;;;;;;5051149;28;20653;-72
2022/03/14 04:33:32;;;;;;;9.63;6.70;;;-2.50;78.10;;;;;;5056340;28;20301;-72
2022/03/14 04:35:58;;;;;;;14.17;6.87;;;-2.50;78.10;;;;;;5054930;28;20187;-71
2022/03/14 04:38:25;;;;;;;14.90;6.53;;;-2.50;78.50;;;;;;5057405;28;20269;-73
2022/03/14 04:40:51;;;;;;;10.30;6.80;;;-2.50;78.50;;;;;;5055220;28;20683;-71
2022/03/14 04:43:17;;;;;;;10.90;6.93;;;-2.50;78.50;;;;;;5056801;28;20282;-71
2022/03/14 04:45:43;;;;;;;10.60;7.07;;;-2.50;78.60;;;;;;5054178;28;20589;-72
2022/03/14 04:48:09;;;;;;;9.63;6.43;;;-2.50;78.50;;;;;;5051397;28;20183;-72
2022/03/14 04:50:36;;;;;;;13.30;7.93;;;-2.50;78.30;;;;;;5054479;28;20666;-72
2022/03/14 04:53:02;;;;;;;10.33;6.80;;;-2.50;78.50;;;;;;5052582;28;20215;-72
2022/03/14 04:55:28;;;;;;;12.73;6.07;;;-2.50;78.50;;;;;;5049758;28;20219;-72
2022/03/14 04:57:54;;;;;;;11.83;7.13;;;-2.50;78.50;;;;;;5051759;28;20212;-72
2022/03/14 05:00:20;;;;;;;12.70;7.30;;;-2.50;78.20;;;;;;5054574;28;20213;-73
2022/03/14 05:02:46;;;;;;;8.97;6.37;;;-2.50;78.10;;;;;;5055723;28;20211;-71
2022/03/14 05:05:12;;;;;;;8.87;6.33;;;-2.50;78.20;;;;;;5052797;28;20217;-71
2022/03/14 05:07:39;;;;;;;14.63;8.03;;;-2.50;78.20;;;;;;5056166;28;20252;-71
2022/03/14 05:10:09;;;;;;;12.83;5.90;;;-2.50;78.20;;;;;;5049694;28;20198;-71
2022/03/14 05:12:35;;;;;;;8.40;5.97;;;-2.50;78.20;;;;;;5052576;28;20296;-72
2022/03/14 05:15:04;;;;;;;8.53;6.23;;;-2.40;78.30;;;;;;5049287;28;20934;-73
2022/03/14 05:17:30;;;;;;;12.73;5.93;;;-2.40;78.20;;;;;;5053498;28;20225;-72
2022/03/14 05:19:57;;;;;;;9.87;6.50;;;-2.40;78.30;;;;;;5049851;28;20266;-71
2022/03/14 05:22:22;;;;;;;9.10;5.97;;;-2.40;78.20;;;;;;5051344;28;20207;-72
2022/03/14 05:24:49;;;;;;;11.40;7.30;;;-2.40;78.20;;;;;;5046950;28;20222;-72
2022/03/14 05:27:15;;;;;;;6.10;5.57;;;-2.30;78.50;;;;;;5042539;28;20194;-72
2022/03/14 05:29:40;;;;;;;12.60;6.53;;;-2.30;79.00;;;;;;5054024;28;20195;-73
2022/03/14 05:32:08;;;;;;;12.63;7.93;;;-2.30;78.80;;;;;;5054408;28;20186;-72
2022/03/14 05:34:35;;;;;;;12.33;6.93;;;-2.30;78.70;;;;;;5053170;28;20203;-73
2022/03/14 05:37:01;;;;;;;6.63;5.90;;;-2.30;79.20;;;;;;5051394;28;20256;-71
2022/03/14 05:39:27;;;;;;;8.57;5.47;;;-2.30;79.30;;;;;;5050030;28;20189;-71
2022/03/14 05:41:53;;;;;;;8.97;6.00;;;-2.20;79.30;;;;;;5051820;28;20179;-71
2022/03/14 05:44:19;;;;;;;8.60;6.27;;;-2.20;79.90;;;;;;5051203;28;20781;-71
2022/03/14 05:46:46;;;;;;;8.10;6.40;;;-2.20;79.50;;;;;;5048169;28;20270;-72
2022/03/14 05:49:12;;;;;;;13.57;5.17;;;-2.20;79.40;;;;;;5053101;28;20279;-73
2022/03/14 05:51:39;;;;;;;7.77;5.13;;;-2.10;78.90;;;;;;5051556;28;20327;-71
2022/03/14 05:54:05;;;;;;;7.93;4.90;;;-2.10;78.60;;;;;;5051196;28;20364;-73
2022/03/14 05:56:31;;;;;;;6.27;5.53;;;-2.00;78.30;;;;;;5049945;28;20206;-72
2022/03/14 05:58:57;;;;;;;5.37;4.33;;;-2.00;78.20;;;;;;5038830;28;20190;-72
2022/03/14 06:01:23;;;;;;;7.13;4.10;;;-1.90;77.80;;;;;;5046823;28;20178;-70
2022/03/14 06:03:50;;;;;;;10.93;6.13;;;-1.90;77.60;;;;;;5048974;28;20262;-71
2022/03/14 06:06:15;;;;;;;13.13;5.57;;;-1.90;77.50;;;;;;5045623;28;20187;-71
2022/03/14 06:08:41;;;;;;;11.63;7.33;;;-1.90;77.40;;;;;;5048464;28;20188;-72
2022/03/14 06:11:09;;;;;;;16.67;8.53;;;-1.90;77.40;;;;;;5054623;28;20193;-71
2022/03/14 06:13:35;;;;;;;10.40;6.70;;;-1.90;77.50;;;;;;5050990;28;20223;-72
2022/03/14 06:16:02;;;;;;;17.73;7.93;;;-1.90;77.40;;;;;;5043627;28;20969;-71
2022/03/14 06:18:29;;;;;;;12.07;7.00;;;-1.80;77.30;;;;;;5050493;28;20665;-70
2022/03/14 06:20:59;;;;;;;9.30;6.57;;;-1.80;77.10;;;;;;5051230;28;20197;-70
2022/03/14 06:23:24;;;;;;;10.13;7.23;;;-1.80;76.80;;;;;;5048897;28;20970;-71
2022/03/14 06:25:50;;;;;;;12.03;7.27;;;-1.70;76.80;;;;;;5042922;28;20190;-71
2022/03/14 06:28:16;;;;;;;14.73;7.93;;;-1.60;76.60;;;;;;5052518;28;20258;-70
2022/03/14 06:30:42;;;;;;;8.17;6.57;;;-1.60;76.50;;;;;;5053777;28;20215;-70
2022/03/14 06:33:08;;;;;;;18.80;7.40;;;-1.50;76.40;;;;;;5052418;28;20242;-71
2022/03/14 06:35:35;;;;;;;23.43;7.70;;;-1.40;76.40;;;;;;5049900;28;20562;-70
2022/03/14 06:38:03;;;;;;;16.67;7.83;;;-1.40;76.60;;;;;;5047828;28;20194;-70
2022/03/14 06:40:28;;;;;;;13.23;8.27;;;-1.30;76.80;;;;;;5047984;28;20578;-70
2022/03/14 06:42:55;;;;;;;13.60;7.43;;;-1.20;76.60;;;;;;5041603;28;20199;-71
2022/03/14 06:45:23;;;;;;;12.03;8.27;;;-1.10;76.50;;;;;;5047296;28;20221;-71
2022/03/14 06:47:53;;;;;;;17.67;8.60;;;-1.00;76.10;;;;;;5048996;28;20244;-72
2022/03/14 06:50:20;;;;;;;13.47;7.67;;;-1.00;76.10;;;;;;5044917;28;20192;-72
2022/03/14 06:52:46;;;;;;;13.13;8.43;;;-0.90;76.10;;;;;;5050590;28;20207;-72
2022/03/14 06:55:12;;;;;;;14.33;9.10;;;-0.80;76.10;;;;;;5050699;28;21544;-72
2022/03/14 06:57:38;;;;;;;9.53;7.33;;;-0.70;75.80;;;;;;5042057;28;20182;-72
2022/03/14 07:00:05;;;;;;;13.53;8.57;;;-0.60;75.50;;;;;;5050550;28;20724;-71
2022/03/14 07:02:31;;;;;;;15.60;8.20;;;-0.50;75.50;;;;;;5045778;28;20305;-71
2022/03/14 07:04:57;;;;;;;11.43;6.77;;;-0.40;75.40;;;;;;5048010;28;20183;-70
2022/03/14 07:07:22;;;;;;;16.17;8.77;;;-0.30;75.20;;;;;;5049851;28;20179;-71
2022/03/14 07:09:48;;;;;;;20.10;8.80;;;-0.30;74.60;;;;;;5042730;28;20180;-70
2022/03/14 07:12:14;;;;;;;12.60;7.83;;;-0.20;74.50;;;;;;5049694;28;20234;-71
2022/03/14 07:14:40;;;;;;;14.33;8.10;;;-0.10;74.50;;;;;;5047716;28;20227;-71
2022/03/14 07:17:06;;;;;;;14.27;8.27;;;0.00;74.30;;;;;;5047140;28;20187;-70
2022/03/14 07:19:32;;;;;;;12.13;7.80;;;0.10;74.20;;;;;;5048034;28;21002;-70
2022/03/14 07:21:59;;;;;;;14.77;7.90;;;0.20;73.90;;;;;;5051488;28;20266;-70
2022/03/14 07:24:25;;;;;;;15.33;8.10;;;0.30;73.80;;;;;;5050048;28;20192;-71
2022/03/14 07:26:51;;;;;;;16.30;7.40;;;0.40;73.30;;;;;;5052977;28;20780;-71
2022/03/14 07:29:17;;;;;;;11.57;7.83;;;0.50;72.30;;;;;;5049596;28;20262;-71
2022/03/14 07:31:43;;;;;;;7.73;5.73;;;0.60;72.30;;;;;;5049063;28;20267;-71
2022/03/14 07:34:09;;;;;;;10.43;7.27;;;0.70;72.20;;;;;;5051447;28;20277;-71
2022/03/14 07:36:36;;;;;;;12.37;7.67;;;0.80;71.50;;;;;;5050664;28;20186;-71
2022/03/14 07:39:04;;;;;;;9.97;6.93;;;0.80;71.50;;;;;;5048858;28;20278;-71
2022/03/14 07:41:30;;;;;;;11.03;6.17;;;0.90;71.00;;;;;;5051555;28;20206;-71
2022/03/14 07:43:56;;;;;;;10.27;7.13;;;1.10;70.70;;;;;;5050699;28;20215;-71
2022/03/14 07:46:22;;;;;;;10.10;6.60;;;1.20;70.50;;;;;;5053533;28;20568;-71
2022/03/14 07:48:47;;;;;;;14.60;6.87;;;1.40;70.40;;;;;;5054959;28;20194;-71
2022/03/14 07:51:14;;;;;;;11.83;7.60;;;1.50;70.10;;;;;;5052262;28;20194;-70
2022/03/14 07:53:40;;;;;;;15.07;7.73;;;1.60;69.50;;;;;;5053838;28;20257;-70
2022/03/14 07:56:06;;;;;;;11.97;8.17;;;1.80;68.60;;;;;;5055875;28;21058;-70
2022/03/14 07:58:31;;;;;;;10.50;7.27;;;1.90;68.40;;;;;;5054177;28;20198;-73
2022/03/14 08:00:57;;;;;;;19.30;8.33;;;2.10;68.10;;;;;;5052829;28;20195;-73
2022/03/14 08:03:23;;;;;;;16.80;9.27;;;2.20;68.20;;;;;;5054301;28;20625;-74
2022/03/14 08:05:58;;;;;;;16.60;10.47;;;2.50;68.20;;;;;;5053155;28;20201;-73
2022/03/14 08:08:24;;;;;;;16.57;9.47;;;2.80;68.10;;;;;;5056570;28;20190;-74
2022/03/14 08:10:50;;;;;;;20.67;10.40;;;3.30;67.40;;;;;;5053825;28;20206;-73
2022/03/14 08:13:16;;;;;;;15.67;10.17;;;3.90;66.10;;;;;;5058116;28;20304;-73
2022/03/14 08:15:42;;;;;;;30.87;10.87;;;4.50;64.70;;;;;;5057865;28;20183;-73
2022/03/14 08:18:09;;;;;;;16.60;10.13;;;5.00;63.40;;;;;;5053297;28;20193;-73
2022/03/14 08:20:37;;;;;;;20.20;12.03;;;5.60;63.20;;;;;;5055619;28;20665;-73
2022/03/14 08:23:03;;;;;;;18.53;10.93;;;6.20;62.20;;;;;;5055570;28;20214;-73
2022/03/14 08:25:30;;;;;;;17.00;11.30;;;7.00;61.70;;;;;;5051617;28;20184;-73
2022/03/14 08:27:56;;;;;;;23.60;13.20;;;8.00;61.40;;;;;;5054675;28;20187;-74
2022/03/14 08:30:23;;;;;;;25.43;12.93;;;9.10;60.60;;;;;;5050954;28;20183;-74
2022/03/14 08:32:51;;;;;;;29.73;13.60;;;9.90;57.10;;;;;;5050099;28;20215;-73
2022/03/14 08:35:20;;;;;;;22.77;12.27;;;10.70;55.70;;;;;;5055812;28;20183;-73
2022/03/14 08:37:48;;;;;;;20.83;12.97;;;11.30;54.00;;;;;;5052148;28;20183;-73
2022/03/14 08:40:16;;;;;;;22.33;13.50;;;11.80;53.00;;;;;;5055143;28;20266;-73
2022/03/14 08:42:43;;;;;;;29.97;14.87;;;12.40;51.70;;;;;;5056496;28;20193;-73
2022/03/14 08:45:10;;;;;;;18.70;13.17;;;12.80;50.50;;;;;;5051921;28;20183;-73
2022/03/14 08:47:36;;;;;;;27.67;13.30;;;13.40;52.80;;;;;;5053847;28;20573;-73
2022/03/14 08:50:04;;;;;;;24.75;14.93;;;14.10;51.30;;;;;;5059641;28;20183;-73
2022/03/14 08:52:30;;;;;;;23.08;15.02;;;14.90;51.10;;;;;;5048670;28;21445;-73
2022/03/14 08:54:57;;;;;;;22.33;14.57;;;15.70;50.30;;;;;;5052853;28;20201;-73
2022/03/14 08:57:23;;;;;;;30.23;15.35;;;16.40;48.50;;;;;;5051409;28;20183;-72
2022/03/14 08:59:50;;;;;;;25.85;15.55;;;16.50;45.50;;;;;;5050598;28;20236;-72
2022/03/14 09:02:16;;;;;;;22.40;15.27;;;16.50;46.00;;;;;;5050137;28;20750;-72
2022/03/14 09:04:41;;;;;;;27.55;15.45;;;17.00;46.40;;;;;;5050498;28;20258;-72
2022/03/14 09:07:08;;;;;;;25.42;14.68;;;17.50;45.60;;;;;;5053570;28;20189;-72
2022/03/14 09:09:36;;;;;;;20.10;14.15;;;18.10;46.60;;;;;;5048717;28;20202;-72
2022/03/14 09:12:03;;;;;;;19.20;12.85;;;18.70;44.20;;;;;;5053824;28;20191;-72
2022/03/14 09:14:31;;;;;;;25.08;12.75;;;19.00;43.30;;;;;;5045636;28;20397;-72
2022/03/14 09:16:57;;;;;;;16.30;13.43;;;19.50;44.80;;;;;;5048864;28;20280;-71
2022/03/14 09:19:24;;;;;;;20.50;13.35;;;20.10;44.50;;;;;;5050020;28;20576;-72
2022/03/14 09:21:49;;;;;;;22.67;13.90;;;20.80;42.70;;;;;;5055024;28;20202;-74
2022/03/14 09:24:15;;;;;;;17.90;13.18;;;21.10;42.70;;;;;;5052501;28;20180;-71
2022/03/14 09:26:41;;;;;;;14.82;8.07;;;21.50;40.90;;;;;;5046491;28;20180;-71
2022/03/14 09:29:08;;;;;;;6.30;5.80;;;21.40;41.00;;;;;;5050320;28;20193;-71
2022/03/14 09:31:33;;;;;;;3.85;3.65;;;21.80;42.40;;;;;;5053482;28;20175;-72
2022/03/14 09:34:00;;;;;;;7.13;3.80;;;22.40;41.70;;;;;;5048321;28;20219;-73
2022/03/14 09:36:25;;;;;;;5.05;4.55;;;22.90;39.30;;;;;;5047623;28;20171;-73
2022/03/14 09:38:51;;;;;;;6.03;5.05;;;23.10;39.80;;;;;;5051677;28;20791;-73
2022/03/14 09:41:19;;;;;;;4.07;3.88;;;23.50;40.30;;;;;;5049857;28;20184;-73
2022/03/14 09:43:47;;;;;;;4.15;3.88;;;23.00;37.30;;;;;;5048672;28;20786;-73
2022/03/14 09:46:14;;;;;;;3.42;3.22;;;22.30;37.80;;;;;;5049694;28;20310;-74
2022/03/14 09:48:47;;;;;;;4.97;4.10;;;22.00;36.90;;;;;;5049521;28;20270;-72
2022/03/14 09:51:13;;;;;;;4.03;3.63;;;21.30;36.90;;;;;;5052419;28;20256;-73
2022/03/14 09:53:39;;;;;;;4.30;4.00;;;21.20;38.10;;;;;;5054498;28;20198;-72
2022/03/14 09:56:05;;;;;;;4.50;4.13;;;21.40;38.40;;;;;;5053751;28;20278;-72
2022/03/14 09:58:30;;;;;;;4.95;4.60;;;21.30;38.10;;;;;;5054711;28;20182;-72
2022/03/14 10:01:02;;;;;;;5.60;4.70;;;20.80;38.70;;;;;;5049391;28;20299;-72
2022/03/14 10:03:28;;;;;;;6.05;4.40;;;20.80;40.20;;;;;;5050497;28;20646;-73
2022/03/14 10:05:54;;;;;;;5.50;5.00;;;21.20;38.00;;;;;;5051876;28;20202;-72
2022/03/14 10:08:22;;;;;;;4.72;4.18;;;21.50;39.70;;;;;;5051045;28;20187;-72
2022/03/14 10:10:48;;;;;;;4.60;4.30;;;22.10;38.70;;;;;;5049236;28;20179;-73
2022/03/14 10:13:16;;;;;;;4.47;3.90;;;22.60;38.80;;;;;;5049650;28;20191;-74
2022/03/14 10:15:44;;;;;;;4.03;3.72;;;23.10;39.40;;;;;;5047559;28;20207;-72
2022/03/14 10:18:15;;;;;;;4.07;3.75;;;23.70;38.60;;;;;;5049280;28;20179;-72
2022/03/14 10:21:03;;;;;;;3.95;3.67;;;24.20;37.90;;;;;;5049663;28;20197;-72
2022/03/14 10:23:31;;;;;;;3.22;3.03;;;24.60;36.70;;;;;;5055531;28;20218;-73
2022/03/14 10:25:58;;;;;;;2.80;2.70;;;24.70;36.40;;;;;;5047912;28;20187;-74
2022/03/14 10:28:27;;;;;;;2.92;2.65;;;25.00;37.70;;;;;;5047118;28;20183;-73
2022/03/14 10:30:53;;;;;;;2.88;2.78;;;25.30;35.90;;;;;;5051785;28;20520;-72
2022/03/14 10:33:23;;;;;;;3.47;3.28;;;25.50;34.80;;;;;;5048176;28;20187;-73
2022/03/14 10:35:49;;;;;;;7.20;2.72;;;25.70;36.40;;;;;;5054335;28;20214;-73
2022/03/14 10:38:16;;;;;;;3.13;2.92;;;26.00;34.70;;;;;;5053571;28;20633;-73
2022/03/14 10:40:45;;;;;;;4.03;3.67;;;26.20;36.60;;;;;;5046922;28;20561;-73
2022/03/14 10:43:29;;;;;;;3.95;3.20;;;26.40;35.00;;;;;;5046934;28;20226;-72
2022/03/14 10:45:56;;;;;;;3.83;3.42;;;26.50;34.60;;;;;;5050478;28;20175;-73
2022/03/14 10:48:51;;;;;;;3.35;3.10;;;26.20;35.30;;;;;;5051008;28;20688;-72
2022/03/14 10:51:18;;;;;;;3.17;3.08;;;26.10;34.00;;;;;;5007424;28;20207;-71
2022/03/14 10:53:45;;;;;;;3.90;3.08;;;26.20;36.70;;;;;;5007832;28;20192;-72
2022/03/14 10:56:13;;;;;;;3.13;2.92;;;26.50;36.50;;;;;;5006011;28;20212;-72
2022/03/14 10:58:39;;;;;;;2.92;2.83;;;26.50;35.40;;;;;;5006586;28;20470;-73
2022/03/14 11:01:09;;;;;;;2.95;2.85;;;26.00;35.20;;;;;;5009815;28;20676;-72
2022/03/14 11:03:37;;;;;;;2.90;2.72;;;25.80;36.10;;;;;;5006857;28;20666;-71
2022/03/14 11:06:10;;;;;;;3.03;2.90;;;25.60;36.00;;;;;;5004321;28;20204;-72
2022/03/14 11:08:43;;;;;;;3.47;3.08;;;25.20;35.70;;;;;;5006624;28;20203;-72
2022/03/14 11:11:29;;;;;;;3.75;3.03;;;24.50;37.00;;;;;;5000937;28;20631;-72
2022/03/14 11:13:56;;;;;;;4.43;4.00;;;23.20;35.60;;;;;;5001396;28;20283;-72
2022/03/14 11:16:29;;;;;;;3.72;3.40;;;22.50;36.20;;;;;;5008013;28;20966;-73
2022/03/14 11:18:56;;;;;;;3.90;3.70;;;22.50;36.40;;;;;;5008723;28;20196;-73
2022/03/14 11:21:24;;;;;;;3.70;3.45;;;21.80;35.70;;;;;;5010780;28;20192;-73
2022/03/14 11:23:51;;;;;;;4.15;3.45;;;21.50;37.50;;;;;;5006375;28;20258;-74
2022/03/14 11:26:20;;;;;;;3.70;3.45;;;21.30;37.00;;;;;;5005289;28;20188;-73
2022/03/14 11:28:48;;;;;;;3.97;3.78;;;20.90;37.10;;;;;;5045893;28;20878;-73
2022/03/14 11:31:17;;;;;;;3.53;2.80;;;20.70;37.90;;;;;;5047694;28;20207;-73
2022/03/14 11:33:43;;;;;;;3.55;3.35;;;20.80;38.80;;;;;;5049782;28;20291;-74
2022/03/14 11:36:13;;;;;;;3.67;3.42;;;21.00;37.10;;;;;;5049309;28;20201;-73
2022/03/14 11:38:39;;;;;;;3.30;3.20;;;21.40;36.60;;;;;;5047082;28;20194;-73
2022/03/14 11:41:05;;;;;;;3.35;3.20;;;21.70;37.00;;;;;;5047731;28;20720;-73
2022/03/14 11:43:31;;;;;;;3.55;3.28;;;22.00;37.90;;;;;;5045826;28;20546;-74
2022/03/14 11:46:02;;;;;;;3.40;3.15;;;22.50;37.20;;;;;;5049587;28;20231;-74
2022/03/14 11:48:33;;;;;;;3.80;3.60;;;23.00;38.60;;;;;;5051144;28;20179;-73
2022/03/14 11:51:06;;;;;;;4.93;3.85;;;23.40;36.80;;;;;;5047236;28;20202;-73
2022/03/14 11:53:36;;;;;;;3.45;3.25;;;23.80;35.90;;;;;;5050576;28;20226;-74
2022/03/14 11:56:07;;;;;;;4.45;3.28;;;24.00;36.60;;;;;;5052138;28;20232;-73
2022/03/14 11:58:34;;;;;;;4.03;2.53;;;;;;;;;;5050222;28;20689;-73
2022/03/14 12:01:30;;;;;;;3.90;3.40;;;24.20;34.60;;;;;;5045488;28;20191;-73
2022/03/14 12:04:02;;;;;;;3.08;2.97;;;24.20;36.40;;;;;;5051063;28;20213;-73
2022/03/14 12:06:46;;;;;;;3.85;3.28;;;24.40;35.40;;;;;;5052036;28;20587;-72
2022/03/14 12:09:24;;;;;;;4.32;3.50;;;24.60;36.00;;;;;;5046555;28;20179;-72
2022/03/14 12:11:51;;;;;;;4.50;3.28;;;24.80;34.90;;;;;;5051537;28;20237;-73
2022/03/14 12:14:47;;;;;;;3.35;3.05;;;24.90;35.40;;;;;;5049559;28;20188;-72
2022/03/14 12:17:13;;;;;;;4.18;3.03;;;25.10;34.40;;;;;;5049005;28;20332;-72
2022/03/14 12:20:03;;;;;;;2.92;2.78;;;25.30;34.90;;;;;;5050660;28;20203;-73
2022/03/14 12:22:29;;;;;;;4.60;3.78;;;;;;;;;;5051829;28;20634;-73
2022/03/14 12:24:57;;;;;;;3.63;3.42;;;24.80;35.90;;;;;;5051798;28;20199;-74
2022/03/14 12:27:33;;;;;;;3.80;3.58;;;24.80;36.00;;;;;;5053964;28;20183;-73
2022/03/14 12:30:00;;;;;;;4.07;3.75;;;23.10;35.30;;;;;;5046002;28;20267;-74
2022/03/14 12:32:28;;;;;;;3.83;3.53;;;21.80;35.70;;;;;;5048975;28;20175;-72
2022/03/14 12:35:03;;;;;;;4.15;3.38;;;21.30;37.80;;;;;;5050885;28;20670;-72
2022/03/14 12:37:35;;;;;;;3.80;3.50;;;21.40;37.30;;;;;;5054417;28;20171;-72
2022/03/14 12:40:02;;;;;;;3.47;2.72;;;21.70;36.90;;;;;;5045594;28;20191;-76
2022/03/14 12:42:28;;;;;;;4.35;3.92;;;;;;;;;;5056647;28;20252;-72